Time;durP1;ratioP1;P1;durP2;ratioP2;P2;SDS_P1;SDS_P2;PMS_P1;PMS_P2;Temp;Humidity;BMP_temperature;BMP_pressure;BME280_temperature;BME280_humidity;BME280_pressure;Samples;Min_cycle;Max_cycle;Signal;HPM_P1;HPM_P2
2022/03/23 00:00:54;;;;;;;10.57;7.77;;;;;;;;;;5028997;28;20189;-75
2022/03/23 00:03:20;;;;;;;11.43;8.50;;;;;;;;;;5014891;28;20189;-75
2022/03/23 00:05:45;;;;;;;12.90;9.13;;;;;;;;;;5024675;28;20228;-75
2022/03/23 00:08:10;;;;;;;11.27;7.80;;;;;;;;;;5036025;28;20178;-75
2022/03/23 00:10:35;;;;;;;12.53;8.30;;;;;;;;;;4995078;28;20277;-75
2022/03/23 00:13:02;;;;;;;12.37;8.43;;;;;;;;;;5005023;28;20177;-75
2022/03/23 00:15:30;;;;;;;11.87;9.60;;;;;;;;;;4993709;28;20539;-74
2022/03/23 00:17:55;;;;;;;11.63;7.93;;;;;;;;;;4996599;28;20235;-75
2022/03/23 00:20:21;;;;;;;13.10;8.93;;;;;;;;;;4995067;28;20208;-75
2022/03/23 00:22:46;;;;;;;10.57;7.73;;;;;;;;;;5001972;28;20217;-75
2022/03/23 00:25:11;;;;;;;9.80;7.90;;;;;;;;;;4997398;28;20191;-75
2022/03/23 00:27:37;;;;;;;12.03;8.83;;;;;;;;;;5012470;28;20192;-74
2022/03/23 00:30:02;;;;;;;12.43;8.77;;;;;;;;;;4996294;28;20215;-75
2022/03/23 00:32:28;;;;;;;8.63;7.27;;;;;;;;;;4990496;28;20264;-75
2022/03/23 00:34:53;;;;;;;12.57;7.97;;;;;;;;;;5024881;28;20185;-75
2022/03/23 00:37:19;;;;;;;10.30;7.23;;;;;;;;;;4999390;28;20194;-75
2022/03/23 00:39:45;;;;;;;10.23;7.07;;;;;;;;;;4993009;28;20202;-75
2022/03/23 00:42:10;;;;;;;10.17;8.07;;;;;;;;;;5023986;28;20184;-75
2022/03/23 00:44:35;;;;;;;9.70;7.90;;;;;;;;;;4994565;28;20181;-75
2022/03/23 00:47:00;;;;;;;11.50;7.80;;;;;;;;;;5021656;28;20556;-75
2022/03/23 00:49:26;;;;;;;10.00;7.33;;;;;;;;;;5011294;28;20268;-75
2022/03/23 00:51:53;;;;;;;12.20;8.07;;;;;;;;;;4998640;28;20191;-75
2022/03/23 00:54:19;;;;;;;9.63;7.30;;;;;;;;;;4997389;28;20311;-75
2022/03/23 00:56:44;;;;;;;11.97;7.53;;;;;;;;;;5003663;28;20295;-75
2022/03/23 00:59:09;;;;;;;13.03;7.40;;;;;;;;;;4996174;28;20186;-75
2022/03/23 01:01:35;;;;;;;13.00;8.27;;;;;;;;;;5034855;28;20181;-76
2022/03/23 01:04:00;;;;;;;9.83;7.23;;;;;;;;;;5016493;28;20203;-74
2022/03/23 01:06:25;;;;;;;11.93;8.97;;;;;;;;;;4994978;28;20283;-75
2022/03/23 01:08:51;;;;;;;10.13;7.23;;;;;;;;;;4989997;28;20185;-75
2022/03/23 01:11:16;;;;;;;10.43;7.87;;;;;;;;;;5022258;28;20193;-75
2022/03/23 01:13:42;;;;;;;12.07;7.90;;;;;;;;;;5013566;28;20202;-75
2022/03/23 01:16:07;;;;;;;9.87;7.80;;;;;;;;;;4998859;28;20235;-75
2022/03/23 01:18:32;;;;;;;10.23;7.40;;;;;;;;;;5007326;28;20539;-74
2022/03/23 01:21:00;;;;;;;15.17;7.63;;;;;;;;;;4990417;28;20176;-75
2022/03/23 01:23:26;;;;;;;12.23;7.87;;;;;;;;;;5016658;28;20174;-74
2022/03/23 01:25:51;;;;;;;10.63;7.67;;;;;;;;;;5026302;28;20195;-75
2022/03/23 01:28:16;;;;;;;9.00;7.17;;;;;;;;;;5016405;28;20177;-75
2022/03/23 01:30:41;;;;;;;9.23;7.37;;;;;;;;;;5019054;28;20173;-75
2022/03/23 01:33:07;;;;;;;8.80;7.40;;;;;;;;;;5015024;28;20225;-75
2022/03/23 01:35:32;;;;;;;10.27;7.80;;;;;;;;;;4997435;28;20180;-75
2022/03/23 01:37:57;;;;;;;9.57;7.07;;;;;;;;;;5010136;28;20233;-75
2022/03/23 01:40:22;;;;;;;11.43;8.23;;;;;;;;;;4997796;28;20181;-75
2022/03/23 01:42:48;;;;;;;14.87;7.77;;;;;;;;;;4997027;28;20268;-75
2022/03/23 01:45:14;;;;;;;11.10;8.30;;;;;;;;;;4999402;28;20227;-74
2022/03/23 01:47:39;;;;;;;10.23;8.03;;;;;;;;;;4997792;28;20186;-75
2022/03/23 01:50:06;;;;;;;12.43;9.30;;;;;;;;;;4997110;28;20187;-75
2022/03/23 01:52:32;;;;;;;14.47;8.27;;;;;;;;;;5006268;28;20185;-75
2022/03/23 01:54:57;;;;;;;12.93;9.27;;;;;;;;;;5012144;28;20209;-75
2022/03/23 01:57:23;;;;;;;12.97;9.00;;;;;;;;;;5024288;28;20204;-75
2022/03/23 01:59:48;;;;;;;14.10;9.90;;;;;;;;;;5025570;28;20251;-75
2022/03/23 02:02:14;;;;;;;11.90;8.83;;;;;;;;;;4999959;28;20180;-75
2022/03/23 02:04:39;;;;;;;11.00;9.37;;;;;;;;;;5028893;28;20461;-75
2022/03/23 02:07:04;;;;;;;15.67;10.50;;;;;;;;;;5018789;28;20197;-75
2022/03/23 02:09:30;;;;;;;11.27;9.10;;;;;;;;;;5017988;28;20181;-75
2022/03/23 02:11:55;;;;;;;11.87;8.83;;;;;;;;;;5029828;28;20272;-75
2022/03/23 02:14:21;;;;;;;14.13;8.80;;;;;;;;;;5017230;28;20187;-75
2022/03/23 02:16:47;;;;;;;13.83;9.13;;;;;;;;;;5009200;28;20202;-75
2022/03/23 02:19:12;;;;;;;9.70;7.93;;;;;;;;;;5013885;28;20215;-75
2022/03/23 02:21:41;;;;;;;11.73;7.20;;;;;;;;;;4996121;28;20183;-75
2022/03/23 02:24:07;;;;;;;12.47;8.40;;;;;;;;;;5001029;28;20202;-75
2022/03/23 02:26:32;;;;;;;11.53;8.40;;;;;;;;;;4997627;28;20211;-75
2022/03/23 02:28:59;;;;;;;12.70;8.77;;;;;;;;;;5001618;28;20197;-75
2022/03/23 02:31:24;;;;;;;13.37;8.27;;;;;;;;;;5014014;28;20188;-75
2022/03/23 02:33:49;;;;;;;12.00;8.30;;;;;;;;;;5016885;28;20285;-75
2022/03/23 02:36:14;;;;;;;11.47;8.50;;;;;;;;;;5010999;28;20201;-75
2022/03/23 02:38:40;;;;;;;11.90;8.13;;;;;;;;;;5029649;28;20280;-75
2022/03/23 02:41:05;;;;;;;11.90;8.40;;;;;;;;;;5021649;28;20174;-75
2022/03/23 02:43:30;;;;;;;12.97;8.57;;;;;;;;;;5021676;28;20204;-75
2022/03/23 02:45:55;;;;;;;13.77;8.20;;;;;;;;;;4997280;28;20186;-75
2022/03/23 02:48:21;;;;;;;13.07;8.43;;;;;;;;;;5014367;28;20182;-75
2022/03/23 02:50:46;;;;;;;12.37;8.13;;;;;;;;;;5022787;28;20177;-75
2022/03/23 03:04:15;;;;;;;9.50;7.33;;;;;;;;;;5016459;28;20229;-75
2022/03/23 03:06:40;;;;;;;10.23;7.60;;;;;;;;;;5029127;28;20183;-75
2022/03/23 03:09:06;;;;;;;9.87;7.63;;;;;;;;;;4998630;28;20185;-75
2022/03/23 03:11:31;;;;;;;9.87;7.47;;;;;;;;;;5002326;28;20186;-75
2022/03/23 03:13:56;;;;;;;9.87;7.83;;;;;;;;;;5031599;28;20211;-75
2022/03/23 03:16:22;;;;;;;13.17;8.53;;;;;;;;;;5023545;28;20233;-75
2022/03/23 03:18:47;;;;;;;13.87;8.17;;;;;;;;;;5026108;28;20182;-75
2022/03/23 03:21:13;;;;;;;10.37;7.77;;;;;;;;;;5030025;28;20199;-74
2022/03/23 03:23:39;;;;;;;9.63;7.93;;;;;;;;;;5011234;28;20177;-75
2022/03/23 03:26:06;;;;;;;13.33;7.97;;;;;;;;;;4993400;28;20181;-75
2022/03/23 03:28:32;;;;;;;12.50;7.80;;;;;;;;;;5009775;28;20192;-74
2022/03/23 03:30:58;;;;;;;13.23;9.43;;;;;;;;;;5011829;28;20183;-75
2022/03/23 03:33:23;;;;;;;13.13;8.70;;;;;;;;;;5033100;28;20338;-75
2022/03/23 03:35:48;;;;;;;13.63;8.80;;;;;;;;;;4993136;28;20180;-75
2022/03/23 03:38:14;;;;;;;14.57;8.77;;;;;;;;;;4994295;28;20211;-75
2022/03/23 03:40:39;;;;;;;12.00;9.17;;;;;;;;;;4996714;28;20208;-75
2022/03/23 03:43:04;;;;;;;14.00;8.60;;;;;;;;;;4998528;28;20640;-74
2022/03/23 03:45:29;;;;;;;13.03;8.37;;;;;;;;;;4993281;28;20182;-75
2022/03/23 03:47:54;;;;;;;12.43;8.73;;;;;;;;;;5013559;28;20197;-74
2022/03/23 03:50:20;;;;;;;13.40;9.00;;;;;;;;;;5024200;28;20190;-75
2022/03/23 03:52:45;;;;;;;12.80;9.20;;;;;;;;;;5026980;28;20199;-75
2022/03/23 03:55:10;;;;;;;14.27;9.97;;;;;;;;;;5015573;28;20184;-75
2022/03/23 03:57:35;;;;;;;15.90;9.50;;;;;;;;;;5014266;28;20210;-75
2022/03/23 04:00:00;;;;;;;14.23;9.13;;;;;;;;;;5012980;28;20182;-75
2022/03/23 04:02:25;;;;;;;13.60;9.50;;;;;;;;;;5006462;28;20260;-75
2022/03/23 04:04:51;;;;;;;12.57;8.03;;;;;;;;;;5004877;28;20199;-75
2022/03/23 04:07:16;;;;;;;13.33;8.90;;;;;;;;;;5025793;28;20398;-75
2022/03/23 04:09:41;;;;;;;11.83;8.17;;;;;;;;;;5017355;28;20204;-75
2022/03/23 04:12:06;;;;;;;12.13;8.67;;;;;;;;;;5000308;28;20273;-75
2022/03/23 04:14:32;;;;;;;11.70;8.20;;;;;;;;;;5012028;28;20176;-75
2022/03/23 04:16:57;;;;;;;11.37;8.73;;;;;;;;;;4995036;28;20208;-75
2022/03/23 04:19:22;;;;;;;12.53;7.93;;;;;;;;;;4994802;28;20172;-75
2022/03/23 04:21:47;;;;;;;11.73;8.20;;;;;;;;;;5002137;28;20187;-75
2022/03/23 04:24:12;;;;;;;12.90;8.90;;;;;;;;;;5013461;28;20232;-75
2022/03/23 04:26:38;;;;;;;11.27;8.00;;;;;;;;;;4998657;28;20184;-75
2022/03/23 04:29:03;;;;;;;11.00;7.83;;;;;;;;;;5004217;28;20191;-75
2022/03/23 04:31:28;;;;;;;11.47;8.17;;;;;;;;;;4996377;28;20190;-75
2022/03/23 04:33:54;;;;;;;11.47;8.13;;;;;;;;;;5001040;28;20180;-75
2022/03/23 04:36:19;;;;;;;10.53;7.70;;;;;;;;;;4996939;28;20259;-74
2022/03/23 04:38:45;;;;;;;10.87;8.07;;;;;;;;;;5000125;28;20180;-75
2022/03/23 04:41:10;;;;;;;12.43;8.27;;;;;;;;;;5013738;28;20201;-74
2022/03/23 04:43:36;;;;;;;11.03;7.83;;;;;;;;;;4997686;28;20209;-75
2022/03/23 04:46:02;;;;;;;12.63;8.17;;;;;;;;;;5006855;28;20277;-75
2022/03/23 04:48:27;;;;;;;14.37;8.77;;;;;;;;;;5012684;28;20337;-75
2022/03/23 04:50:52;;;;;;;11.47;8.50;;;;;;;;;;4998073;28;20572;-75
2022/03/23 04:53:18;;;;;;;14.60;8.33;;;;;;;;;;5005243;28;20182;-75
2022/03/23 04:55:43;;;;;;;12.50;8.23;;;;;;;;;;4996286;28;20180;-75
2022/03/23 04:58:08;;;;;;;15.07;8.90;;;;;;;;;;4995426;28;21050;-75
2022/03/23 05:00:35;;;;;;;12.97;8.37;;;;;;;;;;4997732;28;20436;-75
2022/03/23 05:03:01;;;;;;;14.13;8.53;;;;;;;;;;4995191;28;20424;-75
2022/03/23 05:05:26;;;;;;;15.13;9.00;;;;;;;;;;4992279;28;20204;-75
2022/03/23 05:07:51;;;;;;;12.60;9.83;;;;;;;;;;4990007;28;20311;-75
2022/03/23 05:10:17;;;;;;;23.00;10.60;;;;;;;;;;4997156;28;20172;-74
2022/03/23 05:12:43;;;;;;;13.87;8.50;;;;;;;;;;4998480;28;20276;-75
2022/03/23 05:15:09;;;;;;;12.17;8.77;;;;;;;;;;5007210;28;20342;-75
2022/03/23 05:17:35;;;;;;;10.80;7.43;;;;;;;;;;5006079;28;20212;-75
2022/03/23 05:20:01;;;;;;;12.00;7.77;;;;;;;;;;4998790;28;20191;-75
2022/03/23 05:22:27;;;;;;;13.33;9.57;;;;;;;;;;4993353;28;20181;-75
2022/03/23 05:24:52;;;;;;;15.60;8.97;;;;;;;;;;4994910;28;20173;-75
2022/03/23 05:27:17;;;;;;;12.60;8.50;;;;;;;;;;5002815;28;20252;-75
2022/03/23 05:29:43;;;;;;;15.47;8.77;;;;;;;;;;5014459;28;20184;-74
2022/03/23 05:32:10;;;;;;;16.03;8.47;;;;;;;;;;4994066;28;20189;-74
2022/03/23 05:34:35;;;;;;;11.77;8.67;;;;;;;;;;5006921;28;20223;-75
2022/03/23 05:37:00;;;;;;;14.50;8.80;;;;;;;;;;4996349;28;20228;-75
2022/03/23 05:39:26;;;;;;;18.40;8.73;;;;;;;;;;4993322;28;20180;-74
2022/03/23 05:41:51;;;;;;;12.67;8.33;;;;;;;;;;4991614;28;20193;-74
2022/03/23 05:44:16;;;;;;;15.63;8.80;;;;;;;;;;5012226;28;20171;-75
2022/03/23 05:46:41;;;;;;;19.03;9.23;;;;;;;;;;5008737;28;20186;-75
2022/03/23 05:49:07;;;;;;;15.73;9.63;;;;;;;;;;4990754;28;20187;-74
2022/03/23 05:51:32;;;;;;;15.53;9.67;;;;;;;;;;4993871;28;20184;-76
2022/03/23 05:53:58;;;;;;;15.10;9.67;;;;;;;;;;5010862;28;20189;-76
2022/03/23 05:56:23;;;;;;;13.50;9.43;;;;;;;;;;5009295;28;20283;-76
2022/03/23 05:58:48;;;;;;;13.70;9.27;;;;;;;;;;5000331;28;20191;-76
2022/03/23 06:01:14;;;;;;;12.33;8.90;;;;;;;;;;4997899;28;20186;-76
2022/03/23 06:03:39;;;;;;;14.43;9.50;;;;;;;;;;5015343;28;20201;-76
2022/03/23 06:06:04;;;;;;;12.93;9.20;;;;;;;;;;5006774;28;20182;-76
2022/03/23 06:08:30;;;;;;;10.97;7.50;;;;;;;;;;4993255;28;20177;-76
2022/03/23 06:10:55;;;;;;;14.13;9.47;;;;;;;;;;5001538;28;20228;-76
2022/03/23 06:13:20;;;;;;;15.03;8.93;;;;;;;;;;4990365;28;20178;-76
2022/03/23 06:15:46;;;;;;;16.33;9.57;;;;;;;;;;4999848;28;20333;-76
2022/03/23 06:18:11;;;;;;;13.27;9.00;;;;;;;;;;4996784;28;20207;-77
2022/03/23 06:20:37;;;;;;;16.23;8.60;;;;;;;;;;4998006;28;20183;-76
2022/03/23 06:23:03;;;;;;;11.73;8.80;;;;;;;;;;5019627;28;20227;-77
2022/03/23 06:25:29;;;;;;;14.00;9.17;;;;;;;;;;4998093;28;20229;-77
2022/03/23 06:27:54;;;;;;;15.60;8.57;;;;;;;;;;4999310;28;20182;-76
2022/03/23 06:30:19;;;;;;;13.13;8.97;;;;;;;;;;5001955;28;20177;-76
2022/03/23 06:32:45;;;;;;;20.03;9.63;;;;;;;;;;5011145;28;20188;-76
2022/03/23 06:35:10;;;;;;;16.80;13.50;;;;;;;;;;4994638;28;20241;-76
2022/03/23 06:37:36;;;;;;;14.70;10.37;;;;;;;;;;5003194;28;20244;-76
2022/03/23 06:40:01;;;;;;;15.47;10.57;;;;;;;;;;4993190;28;20184;-77
2022/03/23 06:42:27;;;;;;;15.17;9.43;;;;;;;;;;5026046;28;20171;-76
2022/03/23 06:44:53;;;;;;;12.63;8.73;;;;;;;;;;5009691;28;20177;-76
2022/03/23 06:47:18;;;;;;;14.40;9.90;;;;;;;;;;4997083;28;20230;-76
2022/03/23 06:49:43;;;;;;;13.50;9.43;;;;;;;;;;5026956;28;20353;-76
2022/03/23 06:52:09;;;;;;;15.23;9.77;;;;;;;;;;5022453;28;20182;-76
2022/03/23 06:54:34;;;;;;;16.17;10.63;;;;;;;;;;5027739;28;20171;-77
2022/03/23 06:56:59;;;;;;;13.37;9.53;;;;;;;;;;4994765;28;20203;-76
2022/03/23 06:59:24;;;;;;;13.43;9.10;;;;;;;;;;4999412;28;20249;-76
2022/03/23 07:01:50;;;;;;;15.87;9.60;;;;;;;;;;5003952;28;20178;-76
2022/03/23 07:04:15;;;;;;;14.30;9.87;;;;;;;;;;5035443;28;20196;-76
2022/03/23 07:06:41;;;;;;;13.60;9.67;;;;;;;;;;5011820;28;20216;-76
2022/03/23 07:11:50;;;;;;;14.40;9.83;;;;;;;;;;5023776;28;20228;-76
2022/03/23 07:14:15;;;;;;;13.17;9.53;;;;;;;;;;5017339;28;20266;-76
2022/03/23 07:16:42;;;;;;;16.20;9.47;;;;;;;;;;5005983;28;20235;-76
2022/03/23 07:19:08;;;;;;;18.20;9.67;;;;;;;;;;5019375;28;20192;-77
2022/03/23 07:21:33;;;;;;;13.70;9.97;;;;;;;;;;5010251;28;20170;-76
2022/03/23 07:23:58;;;;;;;16.43;9.77;;;;;;;;;;4996432;28;20175;-76
2022/03/23 07:26:23;;;;;;;14.83;9.63;;;;;;;;;;4995558;28;20193;-76
2022/03/23 07:28:49;;;;;;;12.13;9.80;;;;;;;;;;5000997;28;20189;-76
2022/03/23 07:31:14;;;;;;;20.67;10.93;;;;;;;;;;5001848;28;20190;-76
2022/03/23 07:33:39;;;;;;;14.73;10.47;;;;;;;;;;4986812;28;20227;-76
2022/03/23 07:36:04;;;;;;;12.57;9.70;;;;;;;;;;4989285;28;20217;-76
2022/03/23 07:38:30;;;;;;;14.93;10.90;;;;;;;;;;4989277;28;20185;-76
2022/03/23 07:40:55;;;;;;;18.27;12.23;;;;;;;;;;4992997;28;20262;-76
2022/03/23 07:43:20;;;;;;;15.57;10.70;;;;;;;;;;4996188;28;20180;-75
2022/03/23 07:45:48;;;;;;;16.43;10.67;;;;;;;;;;5004496;28;20192;-76
2022/03/23 07:48:16;;;;;;;15.00;10.57;;;;;;;;;;5000053;28;20208;-76
2022/03/23 07:50:41;;;;;;;15.47;11.20;;;;;;;;;;5003601;28;20175;-76
2022/03/23 07:53:06;;;;;;;15.60;9.87;;;;;;;;;;4996206;28;20186;-76
2022/03/23 07:55:31;;;;;;;15.67;11.17;;;;;;;;;;5003209;28;20478;-76
2022/03/23 07:57:56;;;;;;;15.67;10.83;;;;;;;;;;4999778;28;20224;-76
2022/03/23 08:00:22;;;;;;;12.90;9.57;;;;;;;;;;4993609;28;20174;-76
2022/03/23 08:02:47;;;;;;;15.13;10.00;;;;;;;;;;5008781;28;20173;-76
2022/03/23 08:05:12;;;;;;;12.97;10.17;;;;;;;;;;4993831;28;20199;-76
2022/03/23 08:07:38;;;;;;;14.73;9.90;;;;;;;;;;5023348;28;20205;-76
2022/03/23 08:10:04;;;;;;;15.80;11.07;;;;;;;;;;5001104;28;20188;-76
2022/03/23 08:12:29;;;;;;;15.87;11.27;;;;;;;;;;4996258;28;20178;-76
2022/03/23 08:14:54;;;;;;;13.43;9.83;;;;;;;;;;5000574;28;20181;-76
2022/03/23 08:17:19;;;;;;;12.87;9.37;;;;;;;;;;4993422;28;20207;-76
2022/03/23 08:20:32;;;;;;;18.07;10.17;;;;;;;;;;5014156;28;20229;-76
2022/03/23 08:22:30;;;;;;;17.77;10.03;;;;;;;;;;5015383;28;20537;-76
2022/03/23 08:24:55;;;;;;;14.87;10.47;;;;;;;;;;4999524;28;20183;-76
2022/03/23 08:27:20;;;;;;;13.37;9.87;;;;;;;;;;5025188;28;20214;-76
2022/03/23 08:29:45;;;;;;;13.53;10.60;;;;;;;;;;5010111;28;20191;-73
2022/03/23 08:32:10;;;;;;;15.57;9.63;;;;;;;;;;5001252;28;20191;-73
2022/03/23 08:34:36;;;;;;;13.30;9.37;;;;;;;;;;5011437;28;20267;-73
2022/03/23 08:37:01;;;;;;;13.73;9.07;;;;;;;;;;5017872;28;20213;-73
2022/03/23 08:39:26;;;;;;;15.37;9.03;;;;;;;;;;4996520;28;20221;-73
2022/03/23 08:41:51;;;;;;;13.67;9.00;;;;;;;;;;4992562;28;20287;-74
2022/03/23 08:44:16;;;;;;;11.90;9.40;;;;;;;;;;5032350;28;20225;-74
2022/03/23 08:46:42;;;;;;;16.13;10.43;;;;;;;;;;4995980;28;20449;-73
2022/03/23 08:49:07;;;;;;;15.00;10.50;;;;;;;;;;4994986;28;20204;-73
2022/03/23 08:51:32;;;;;;;13.63;10.30;;;;;;;;;;5004349;28;20206;-73
2022/03/23 08:53:57;;;;;;;13.37;9.27;;;;;;;;;;5030503;28;20181;-73
2022/03/23 08:56:22;;;;;;;11.80;9.53;;;;;;;;;;4994812;28;20212;-73
2022/03/23 08:58:49;;;;;;;12.13;9.53;;;;;;;;;;4993558;28;20258;-73
2022/03/23 09:01:14;;;;;;;16.50;10.33;;;;;;;;;;5008169;28;20191;-73
2022/03/23 09:03:40;;;;;;;12.97;10.43;;;;;;;;;;5003526;28;20199;-73
2022/03/23 09:06:05;;;;;;;12.43;9.57;;;;;;;;;;5034974;28;20207;-73
2022/03/23 09:08:30;;;;;;;11.63;10.03;;;;;;;;;;5017103;28;20181;-74
2022/03/23 09:10:55;;;;;;;14.57;11.50;;;;;;;;;;5005378;28;20172;-73
2022/03/23 09:13:21;;;;;;;12.43;10.57;;;;;;;;;;5021062;28;20182;-73
2022/03/23 09:15:48;;;;;;;15.23;10.13;;;;;;;;;;5027468;28;20262;-73
2022/03/23 09:18:13;;;;;;;12.50;10.17;;;;;;;;;;5014437;28;20203;-73
2022/03/23 09:20:38;;;;;;;16.73;10.60;;;;;;;;;;4992060;28;20176;-73
2022/03/23 09:23:03;;;;;;;18.40;11.60;;;;;;;;;;4994785;28;20204;-73
2022/03/23 09:25:29;;;;;;;16.33;10.83;;;;;;;;;;5024636;28;20173;-73
2022/03/23 09:27:54;;;;;;;12.70;9.50;;;;;;;;;;5004927;28;20177;-73
2022/03/23 09:30:19;;;;;;;14.93;9.97;;;;;;;;;;5026835;28;20181;-73
2022/03/23 09:32:46;;;;;;;16.37;12.77;;;;;;;;;;5033520;28;20202;-73
2022/03/23 09:35:12;;;;;;;13.67;9.50;;;;;;;;;;5011289;28;20213;-73
2022/03/23 09:37:49;;;;;;;17.67;10.57;;;;;;;;;;4993550;28;20638;-73
2022/03/23 09:40:27;;;;;;;12.50;9.37;;;;;;;;;;5013887;28;20175;-73
2022/03/23 09:42:54;;;;;;;12.60;9.83;;;;;;;;;;5000982;28;20205;-73
2022/03/23 09:45:31;;;;;;;12.73;8.83;;;;;;;;;;4997076;28;20188;-73
2022/03/23 09:47:57;;;;;;;13.17;10.10;;;;;;;;;;5014219;28;20186;-73
2022/03/23 09:50:25;;;;;;;12.93;9.97;;;;;;;;;;5015186;28;20181;-73
2022/03/23 09:52:51;;;;;;;11.73;9.40;;;;;;;;;;5013451;28;20173;-73
2022/03/23 09:55:16;;;;;;;12.70;10.37;;;;;;;;;;4990593;28;20192;-73
2022/03/23 09:57:41;;;;;;;13.03;9.67;;;;;;;;;;4991721;28;20210;-74
2022/03/23 10:00:10;;;;;;;17.00;10.50;;;;;;;;;;5010544;28;20182;-73
2022/03/23 10:02:38;;;;;;;13.17;9.83;;;;;;;;;;4992640;28;20177;-73
2022/03/23 10:05:25;;;;;;;10.73;8.77;;;;;;;;;;4998084;28;20200;-73
2022/03/23 10:08:02;;;;;;;11.80;8.60;;;;;;;;;;5005684;28;20186;-73
2022/03/23 10:10:34;;;;;;;11.87;9.23;;;;;;;;;;5011234;28;20183;-73
2022/03/23 10:13:18;;;;;;;11.83;9.57;;;;;;;;;;4994111;28;20179;-73
2022/03/23 10:16:02;;;;;;;12.70;10.07;;;;;;;;;;5008789;28;20236;-73
2022/03/23 10:18:46;;;;;;;12.60;9.67;;;;;;;;;;5012855;28;20217;-73
2022/03/23 10:21:11;;;;;;;12.33;9.33;;;;;;;;;;5007298;28;20190;-73
2022/03/23 10:23:36;;;;;;;13.10;9.60;;;;;;;;;;5015081;28;20171;-73
2022/03/23 10:26:12;;;;;;;12.97;9.57;;;;;;;;;;4994394;28;20199;-73
2022/03/23 10:28:37;;;;;;;14.43;9.53;;;;;;;;;;4985629;28;20193;-73
2022/03/23 10:31:13;;;;;;;13.57;9.30;;;;;;;;;;4995487;28;20299;-73
2022/03/23 10:33:38;;;;;;;14.37;8.63;;;;;;;;;;5012230;28;20184;-73
2022/03/23 10:36:04;;;;;;;14.03;9.47;;;;;;;;;;4984390;28;20547;-73
2022/03/23 10:38:36;;;;;;;13.67;9.60;;;;;;;;;;4997820;28;20257;-73
2022/03/23 10:41:07;;;;;;;9.97;8.37;;;;;;;;;;5012115;28;20195;-73
2022/03/23 10:43:36;;;;;;;11.03;9.47;;;;;;;;;;5006170;28;20176;-73
2022/03/23 10:46:08;;;;;;;12.20;8.60;;;;;;;;;;4992850;28;20183;-73
2022/03/23 10:48:34;;;;;;;11.13;8.30;;;;;;;;;;4988967;28;20203;-73
2022/03/23 10:50:59;;;;;;;13.87;8.53;;;;;;;;;;4996304;28;20225;-74
2022/03/23 10:53:38;;;;;;;11.10;9.37;;;;;;;;;;4997201;28;20180;-73
2022/03/23 10:56:04;;;;;;;13.47;10.03;;;;;;;;;;4994882;28;20267;-73
2022/03/23 10:58:30;;;;;;;14.47;10.60;;;;;;;;;;5018736;28;20197;-73
2022/03/23 11:00:56;;;;;;;10.07;8.40;;;;;;;;;;4992338;28;20279;-73
2022/03/23 11:03:34;;;;;;;11.53;8.77;;;;;;;;;;5013475;28;20178;-73
2022/03/23 11:06:00;;;;;;;11.03;8.60;;;;;;;;;;4988724;28;20189;-74
2022/03/23 11:08:25;;;;;;;14.30;9.50;;;;;;;;;;4992279;28;20231;-73
2022/03/23 11:16:32;;;;;;;9.37;8.23;;;;;;;;;;5009337;28;20268;-73
2022/03/23 11:18:57;;;;;;;9.80;8.77;;;;;;;;;;4992475;28;20186;-74
2022/03/23 11:21:24;;;;;;;9.17;7.37;;;;;;;;;;4999278;28;20303;-73
2022/03/23 11:23:50;;;;;;;8.90;7.33;;;;;;;;;;4992769;28;20266;-73
2022/03/23 11:26:15;;;;;;;9.93;8.63;;;;;;;;;;5012667;28;20225;-73
2022/03/23 11:28:46;;;;;;;10.00;7.77;;;;;;;;;;5000106;28;20186;-73
2022/03/23 11:31:12;;;;;;;10.20;7.73;;;;;;;;;;5026090;28;20204;-73
2022/03/23 11:33:38;;;;;;;10.13;8.07;;;;;;;;;;4995960;28;20181;-73
2022/03/23 11:36:05;;;;;;;12.40;8.00;;;;;;;;;;5025488;28;20186;-73
2022/03/23 11:38:33;;;;;;;10.47;8.10;;;;;;;;;;5017957;28;20209;-73
2022/03/23 11:40:58;;;;;;;9.20;6.67;;;;;;;;;;5018799;28;20189;-73
2022/03/23 11:43:25;;;;;;;11.40;8.40;;;;;;;;;;5035797;28;20229;-73
2022/03/23 11:45:52;;;;;;;7.93;6.80;;;;;;;;;;4993148;28;20244;-73
2022/03/23 11:48:20;;;;;;;9.87;7.27;;;;;;;;;;4996369;28;20273;-73
2022/03/23 11:50:45;;;;;;;9.53;8.03;;;;;;;;;;4999484;28;20187;-73
2022/03/23 11:53:31;;;;;;;11.80;9.07;;;;;;;;;;5021690;28;20194;-73
2022/03/23 11:55:56;;;;;;;12.60;8.60;;;;;;;;;;4995315;28;20219;-73
2022/03/23 11:58:31;;;;;;;12.60;7.47;;;;;;;;;;5009074;28;20245;-73
2022/03/23 12:01:06;;;;;;;8.53;7.17;;;;;;;;;;5006998;28;20181;-73
2022/03/23 12:03:43;;;;;;;8.20;7.00;;;;;;;;;;5019234;28;20260;-73
2022/03/23 12:06:09;;;;;;;8.50;7.20;;;;;;;;;;5012624;28;20175;-73
2022/03/23 12:08:46;;;;;;;9.33;7.47;;;;;;;;;;4996146;28;20188;-73
2022/03/23 12:11:30;;;;;;;7.03;5.80;;;;;;;;;;5010952;28;20249;-73
2022/03/23 12:13:56;;;;;;;8.00;6.20;;;;;;;;;;5018339;28;20190;-73
2022/03/23 12:16:42;;;;;;;6.10;5.47;;;;;;;;;;5025135;28;20231;-73
2022/03/23 12:19:07;;;;;;;9.50;6.63;;;;;;;;;;4994948;28;20187;-73
2022/03/23 12:21:48;;;;;;;10.67;6.90;;;;;;;;;;5004332;28;20185;-73
2022/03/23 12:24:18;;;;;;;10.53;7.00;;;;;;;;;;5003768;28;20236;-73
2022/03/23 12:26:52;;;;;;;9.93;7.13;;;;;;;;;;5003132;28;20219;-73
2022/03/23 12:29:26;;;;;;;8.53;7.67;;;;;;;;;;5008524;28;20227;-73
2022/03/23 12:32:02;;;;;;;10.60;7.37;;;;;;;;;;5001538;28;20188;-73
2022/03/23 12:34:27;;;;;;;9.43;7.37;;;;;;;;;;4994257;28;20179;-74
2022/03/23 12:36:56;;;;;;;9.27;7.10;;;;;;;;;;5008710;28;20218;-73
2022/03/23 12:40:00;;;;;;;9.17;7.20;;;;;;;;;;4997120;28;20185;-73
2022/03/23 12:42:31;;;;;;;9.17;7.20;;;;;;;;;;4958358;28;20223;-73
2022/03/23 12:45:07;;;;;;;9.33;8.20;;;;;;;;;;4930446;29;20190;-73
2022/03/23 12:47:34;;;;;;;9.57;7.13;;;;;;;;;;4961261;28;20292;-74
2022/03/23 12:58:29;;;;;;;10.03;6.87;;;;;;;;;;4952242;29;20259;-73
2022/03/23 13:00:55;;;;;;;8.70;6.57;;;;;;;;;;4952392;28;20187;-73
2022/03/23 13:03:22;;;;;;;6.93;6.23;;;;;;;;;;4936137;29;20185;-73
2022/03/23 13:05:59;;;;;;;8.50;7.23;;;;;;;;;;4961141;28;20286;-73
2022/03/23 13:08:30;;;;;;;10.57;7.23;;;;;;;;;;4949669;28;20217;-73
2022/03/23 13:10:58;;;;;;;9.20;7.87;;;;;;;;;;4959296;28;20194;-73
2022/03/23 13:13:23;;;;;;;7.93;7.13;;;;;;;;;;4981510;28;20192;-73
2022/03/23 13:15:49;;;;;;;11.30;7.67;;;;;;;;;;5012104;28;20237;-73
2022/03/23 13:18:14;;;;;;;10.27;8.23;;;;;;;;;;4993784;28;20203;-73
2022/03/23 13:20:49;;;;;;;11.30;7.87;;;;;;;;;;5020758;28;20257;-73
2022/03/23 13:23:17;;;;;;;11.60;7.57;;;;;;;;;;5014970;28;20179;-76
2022/03/23 13:25:43;;;;;;;9.87;7.90;;;;;;;;;;4990960;28;20178;-73
2022/03/23 13:28:14;;;;;;;10.33;8.23;;;;;;;;;;5018656;28;20202;-73
2022/03/23 13:30:42;;;;;;;9.00;8.10;;;;;;;;;;4997282;28;20194;-73
2022/03/23 13:33:17;;;;;;;9.67;8.30;;;;;;;;;;4993269;28;20185;-72
2022/03/23 13:35:45;;;;;;;9.97;8.50;;;;;;;;;;5015013;28;20182;-73
2022/03/23 13:38:11;;;;;;;10.67;7.93;;;;;;;;;;4997667;28;20212;-73
2022/03/23 13:43:27;;;;;;;9.17;8.10;;;;;;;;;;5009953;28;20193;-73
2022/03/23 13:45:53;;;;;;;16.20;8.60;;;;;;;;;;5021077;28;20178;-73
2022/03/23 13:48:19;;;;;;;10.27;8.33;;;;;;;;;;5015871;28;20183;-73
2022/03/23 13:50:46;;;;;;;9.13;7.70;;;;;;;;;;4993266;28;20186;-73
2022/03/23 13:53:14;;;;;;;11.90;8.00;;;;;;;;;;5018576;28;20179;-73
2022/03/23 13:55:41;;;;;;;13.30;8.97;;;;;;;;;;5017293;28;20189;-73
2022/03/23 13:58:06;;;;;;;11.40;9.57;;;;;;;;;;4987126;28;20210;-73
2022/03/23 14:00:32;;;;;;;11.23;9.57;;;;;;;;;;4995408;28;20190;-73
2022/03/23 14:02:57;;;;;;;9.57;8.57;;;;;;;;;;5013252;28;20169;-73
2022/03/23 14:05:25;;;;;;;10.93;9.20;;;;;;;;;;4990279;28;20484;-73
2022/03/23 14:07:50;;;;;;;11.67;9.93;;;;;;;;;;4988869;28;20214;-73
2022/03/23 14:10:15;;;;;;;10.77;9.67;;;;;;;;;;5001222;28;20273;-73
2022/03/23 14:12:40;;;;;;;14.73;10.93;;;;;;;;;;5017361;28;20193;-73
2022/03/23 14:15:06;;;;;;;14.83;10.43;;;;;;;;;;5005195;28;20236;-73
2022/03/23 14:17:34;;;;;;;13.90;11.97;;;;;;;;;;5011907;28;20194;-73
2022/03/23 14:20:03;;;;;;;12.97;11.30;;;;;;;;;;5001709;28;20238;-73
2022/03/23 14:22:29;;;;;;;12.10;10.80;;;;;;;;;;4994339;28;20195;-73
2022/03/23 14:24:58;;;;;;;13.97;10.17;;;;;;;;;;4993608;28;20179;-73
2022/03/23 14:27:23;;;;;;;12.73;11.47;;;;;;;;;;5010326;28;20236;-73
2022/03/23 14:29:58;;;;;;;12.37;11.13;;;;;;;;;;4997896;28;20247;-73
2022/03/23 14:32:47;;;;;;;12.07;10.23;;;;;;;;;;4992730;28;20213;-73
2022/03/23 14:35:16;;;;;;;12.53;10.90;;;;;;;;;;4988658;28;20259;-73
2022/03/23 14:37:51;;;;;;;14.43;12.47;;;;;;;;;;4989672;28;20209;-73
2022/03/23 14:40:21;;;;;;;15.63;11.87;;;;;;;;;;4999365;28;20176;-73
2022/03/23 14:42:46;;;;;;;14.37;12.03;;;;;;;;;;4996274;28;20214;-76
2022/03/23 14:45:31;;;;;;;12.10;10.40;;;;;;;;;;4995379;28;20180;-72
2022/03/23 14:47:58;;;;;;;17.27;13.87;;;;;;;;;;5004736;28;20214;-72
2022/03/23 14:50:23;;;;;;;13.33;11.77;;;;;;;;;;4992704;28;20298;-72
2022/03/23 14:52:49;;;;;;;15.17;11.40;;;;;;;;;;4993564;28;20276;-72
2022/03/23 14:55:14;;;;;;;13.60;11.30;;;;;;;;;;5010503;28;20527;-72
2022/03/23 14:57:40;;;;;;;15.90;12.30;;;;;;;;;;5005187;28;20203;-72